Allen, Alabama
Current Conditions -  °F | °C
As of 12:53 PM on Sunday 21 Dec 2014 (Local Time) from KGZH Reporting Station
Overcast Overcast  
Wind Chill: 16°   Ceiling: 1900
Heat Index: 16°   Visibility: 10mi
Dew Point: 11°   Wind: 7mph
Humidity: 70%   Direction: 100°E
Pressure: 30.05"   Gusts: NA
Location:  31.6°N, 87.71°W
Report Text: KGZH 211853Z AUTO 10006KT 10SM OVC019 16/11 A3005 RMK AO2 SLP175 T01610106
Loading
Personal Weather Stations






























Interactive Weather Map New forecast layout! Learn more

10-Day Weather Forecast

Advertisements
Track Severe Weather on mobile